createdAt,value
2023-04-15T00:02:16.769Z,62.43
2023-04-15T00:04:59.986Z,62.39
2023-04-15T00:07:45.786Z,62.46
2023-04-15T00:10:29.407Z,64.00
2023-04-15T00:13:12.685Z,65.34
2023-04-15T00:15:56.262Z,64.42
2023-04-15T00:18:39.891Z,64.15
2023-04-15T00:21:23.098Z,62.06
2023-04-15T00:24:07.802Z,63.35
2023-04-15T00:26:51.036Z,63.28
2023-04-15T00:29:35.067Z,65.52
2023-04-15T00:32:18.467Z,63.02
2023-04-15T00:35:02.401Z,62.66
2023-04-15T00:37:46.417Z,63.57
2023-04-15T00:40:31.302Z,64.42
2023-04-15T00:43:14.514Z,62.90
2023-04-15T00:46:00.347Z,63.62
2023-04-15T00:48:44.939Z,62.31
2023-04-15T00:51:28.156Z,64.60
2023-04-15T00:54:11.686Z,64.87
2023-04-15T00:56:56.722Z,66.48
2023-04-15T00:59:40.183Z,65.81
2023-04-15T01:02:24.312Z,67.29
2023-04-15T01:05:08.531Z,69.09
2023-04-15T01:07:52.014Z,69.65
2023-04-15T01:10:35.448Z,70.04
2023-04-15T01:13:21.575Z,70.43
2023-04-15T01:16:04.847Z,71.70
2023-04-15T01:18:48.570Z,71.20
2023-04-15T01:21:32.004Z,72.16
2023-04-15T01:24:19.420Z,72.44
2023-04-15T01:27:05.633Z,72.28
2023-04-15T01:29:49.015Z,72.24
2023-04-15T01:32:32.688Z,71.59
2023-04-15T01:35:15.914Z,72.12
2023-04-15T01:38:05.085Z,73.18
2023-04-15T01:40:48.317Z,72.42
2023-04-15T01:43:33.181Z,72.34
2023-04-15T01:46:16.949Z,71.94
2023-04-15T01:49:00.308Z,71.60
2023-04-15T01:51:43.500Z,71.59
2023-04-15T01:54:27.916Z,71.18
2023-04-15T01:57:11.258Z,71.57
2023-04-15T01:59:56.261Z,71.73
2023-04-15T02:02:40.159Z,70.53
2023-04-15T02:05:23.474Z,71.30
2023-04-15T02:08:09.439Z,70.44
2023-04-15T02:10:53.002Z,71.13
2023-04-15T02:13:36.566Z,71.37
2023-04-15T02:16:21.471Z,71.82
2023-04-15T02:19:04.932Z,71.78
2023-04-15T02:21:48.107Z,72.27
2023-04-15T02:24:32.176Z,72.97
2023-04-15T02:27:18.523Z,72.29
2023-04-15T02:30:01.868Z,72.54
2023-04-15T02:32:46.704Z,72.90
2023-04-15T02:35:30.046Z,75.04
2023-04-15T02:38:14.340Z,76.95
2023-04-15T02:40:57.865Z,76.86
2023-04-15T02:43:41.129Z,76.06
2023-04-15T02:46:24.445Z,77.14
2023-04-15T02:49:09.637Z,76.94
2023-04-15T02:51:53.003Z,76.51
2023-04-15T02:54:36.065Z,76.78
2023-04-15T02:57:19.353Z,77.27
2023-04-15T03:00:02.487Z,76.15
2023-04-15T03:02:47.416Z,74.54
2023-04-15T03:05:32.266Z,72.84
2023-04-15T03:08:16.112Z,73.38
2023-04-15T03:11:01.070Z,74.40
2023-04-15T03:13:44.508Z,76.23
2023-04-15T03:16:28.089Z,75.88
2023-04-15T03:19:11.424Z,76.09
2023-04-15T03:21:56.522Z,75.27
2023-04-15T03:24:39.682Z,75.86
2023-04-15T03:27:24.314Z,76.01
2023-04-15T03:30:09.305Z,77.04
2023-04-15T03:32:53.581Z,77.90
2023-04-15T03:35:36.878Z,77.82
2023-04-15T03:38:21.686Z,77.94
2023-04-15T03:41:05.266Z,78.68
2023-04-15T03:43:48.657Z,79.05
2023-04-15T03:46:32.217Z,78.96
2023-04-15T03:49:16.449Z,78.88
2023-04-15T03:52:00.874Z,79.66
2023-04-15T03:54:46.137Z,79.26
2023-04-15T03:57:30.913Z,77.96
2023-04-15T04:00:14.355Z,78.75
2023-04-15T04:02:57.869Z,79.16
2023-04-15T04:05:41.605Z,77.25
2023-04-15T04:08:24.738Z,78.73
2023-04-15T04:11:10.548Z,78.59
2023-04-15T04:13:53.762Z,79.85
2023-04-15T04:16:37.458Z,77.95
2023-04-15T04:19:21.260Z,78.31
2023-04-15T04:22:04.718Z,78.27
2023-04-15T04:24:48.836Z,78.37
2023-04-15T04:27:33.492Z,77.95
2023-04-15T04:30:17.982Z,79.32
2023-04-15T04:33:01.336Z,80.78
2023-04-15T04:35:44.588Z,79.55
2023-04-15T04:38:27.709Z,79.30
2023-04-15T04:41:12.090Z,78.71
2023-04-15T04:43:56.722Z,79.31
2023-04-15T04:46:40.655Z,78.66
2023-04-15T04:49:25.380Z,78.15
2023-04-15T04:52:11.117Z,77.62
2023-04-15T04:54:55.431Z,76.69
2023-04-15T04:57:39.623Z,76.73
2023-04-15T05:00:24.799Z,76.23
2023-04-15T05:03:08.253Z,75.43
2023-04-15T05:05:52.031Z,75.19
2023-04-15T05:08:35.174Z,75.09
2023-04-15T05:11:20.748Z,75.20
2023-04-15T05:14:03.908Z,76.08
2023-04-15T05:16:50.894Z,75.37
2023-04-15T05:19:34.162Z,75.65
2023-04-15T05:22:17.312Z,74.52
2023-04-15T05:25:00.668Z,75.03
2023-04-15T05:27:44.118Z,73.17
2023-04-15T05:30:27.512Z,71.90
2023-04-15T05:33:13.766Z,71.99
2023-04-15T05:35:57.318Z,72.36
2023-04-15T05:38:43.326Z,71.23
2023-04-15T05:41:26.775Z,70.32
2023-04-15T05:44:10.212Z,69.15
2023-04-15T05:46:53.559Z,67.70
2023-04-15T05:49:38.920Z,65.89
2023-04-15T05:52:22.164Z,60.64
2023-04-15T05:55:06.644Z,59.54
2023-04-15T05:57:50.004Z,57.85
2023-04-15T06:00:33.250Z,58.02
2023-04-15T06:03:18.410Z,58.46
2023-04-15T06:06:05.903Z,58.25
2023-04-15T06:08:49.058Z,59.93
2023-04-15T06:11:32.968Z,58.36
2023-04-15T06:14:16.227Z,57.75
2023-04-15T06:16:59.286Z,57.74
2023-04-15T06:19:42.584Z,54.81
2023-04-15T06:22:27.180Z,52.48
2023-04-15T06:25:11.064Z,49.66
2023-04-15T06:27:54.093Z,50.26
2023-04-15T06:30:37.248Z,50.15
2023-04-15T06:33:20.336Z,48.70
2023-04-15T06:36:03.703Z,44.86
2023-04-15T06:38:48.279Z,37.81
2023-04-15T06:41:31.421Z,35.03
2023-04-15T06:44:14.690Z,33.39
2023-04-15T06:46:57.882Z,31.71
2023-04-15T06:49:41.427Z,30.64
2023-04-15T06:52:26.343Z,27.77
2023-04-15T06:55:11.593Z,26.41
2023-04-15T06:57:54.838Z,30.57
2023-04-15T07:00:39.353Z,28.74
2023-04-15T07:03:22.596Z,26.15
2023-04-15T07:06:07.218Z,22.62
2023-04-15T07:08:50.445Z,26.67
2023-04-15T07:11:34.953Z,20.79
2023-04-15T07:14:18.258Z,22.95
2023-04-15T07:17:01.484Z,21.76
2023-04-15T07:19:44.645Z,16.85
2023-04-15T07:22:28.047Z,16.78
2023-04-15T07:25:11.456Z,15.34
2023-04-15T07:27:56.510Z,14.39
2023-04-15T07:30:39.781Z,15.04
2023-04-15T07:33:23.940Z,13.93
2023-04-15T07:36:07.380Z,14.92
2023-04-15T07:38:50.434Z,14.72
2023-04-15T07:41:34.028Z,15.18
2023-04-15T07:44:18.690Z,19.44
2023-04-15T07:47:02.020Z,16.12
2023-04-15T07:49:45.901Z,14.89
2023-04-15T07:52:29.117Z,15.13
2023-04-15T07:55:12.589Z,16.23
2023-04-15T07:57:56.028Z,16.26
2023-04-15T08:00:40.799Z,13.48
2023-04-15T08:03:24.178Z,14.32
2023-04-15T08:06:09.503Z,12.23
2023-04-15T08:08:53.000Z,13.13
2023-04-15T08:11:36.646Z,14.48
2023-04-15T08:14:20.281Z,13.88
2023-04-15T08:17:05.720Z,11.96
2023-04-15T08:19:52.165Z,12.40
2023-04-15T08:22:35.702Z,10.97
2023-04-15T08:25:19.148Z,10.06
2023-04-15T08:28:07.213Z,10.32
2023-04-15T08:30:51.993Z,12.21
2023-04-15T08:33:37.072Z,11.35
2023-04-15T08:36:22.274Z,11.04
2023-04-15T08:39:06.247Z,12.70
2023-04-15T08:41:54.639Z,12.39
2023-04-15T08:44:38.536Z,13.15
2023-04-15T08:47:23.430Z,10.36
2023-04-15T08:50:12.013Z,10.54
2023-04-15T08:52:57.166Z,9.83
2023-04-15T08:55:46.656Z,9.12
2023-04-15T08:58:30.929Z,7.98
2023-04-15T09:01:14.823Z,12.40
2023-04-15T09:03:58.786Z,14.11
2023-04-15T09:06:43.250Z,12.46
2023-04-15T09:09:26.942Z,11.55
2023-04-15T09:12:10.777Z,11.44
2023-04-15T09:14:54.137Z,12.15
2023-04-15T09:17:43.231Z,11.96
2023-04-15T09:20:26.580Z,12.92
2023-04-15T09:23:17.769Z,11.32
2023-04-15T09:26:00.985Z,11.31
2023-04-15T09:28:44.464Z,12.99
2023-04-15T09:31:31.452Z,14.09
2023-04-15T09:34:14.850Z,13.62
2023-04-15T09:36:58.704Z,15.76
2023-04-15T09:39:51.109Z,15.78
2023-04-15T09:42:34.879Z,16.47
2023-04-15T09:45:18.047Z,17.09
2023-04-15T09:48:15.660Z,18.01
2023-04-15T09:51:02.695Z,18.15
2023-04-15T09:53:46.137Z,19.01
2023-04-15T09:56:39.616Z,19.71
2023-04-15T09:59:22.941Z,21.54
2023-04-15T10:02:07.870Z,23.18
2023-04-15T10:04:53.944Z,21.08
2023-04-15T10:07:37.124Z,22.17
2023-04-15T10:10:21.044Z,23.47
2023-04-15T10:13:06.058Z,22.37
2023-04-15T10:15:53.549Z,21.45
2023-04-15T10:18:39.307Z,19.51
2023-04-15T10:21:23.886Z,19.55
2023-04-15T10:24:08.658Z,19.22
2023-04-15T10:26:52.422Z,18.76
2023-04-15T10:29:38.991Z,13.97
2023-04-15T10:32:24.001Z,12.50
2023-04-15T10:35:09.630Z,11.58
2023-04-15T10:37:52.817Z,12.24
2023-04-15T10:40:35.951Z,13.38
2023-04-15T10:43:28.316Z,11.37
2023-04-15T10:46:13.486Z,11.80
2023-04-15T10:48:56.718Z,14.06
2023-04-15T10:51:42.731Z,13.63
2023-04-15T10:54:33.982Z,14.19
2023-04-15T10:57:22.810Z,15.13
2023-04-15T11:00:14.502Z,13.78
2023-04-15T11:03:00.633Z,14.59
2023-04-15T11:05:53.968Z,15.06
2023-04-15T11:08:55.861Z,15.17
2023-04-15T11:12:07.636Z,14.19
2023-04-15T11:14:54.327Z,16.19
2023-04-15T11:17:37.821Z,17.04
2023-04-15T11:20:22.987Z,18.39
2023-04-15T11:23:13.890Z,18.58
2023-04-15T11:25:59.577Z,19.44
2023-04-15T11:28:44.989Z,20.50
2023-04-15T11:31:30.472Z,20.76
2023-04-15T11:34:13.654Z,21.06
2023-04-15T11:37:00.534Z,21.66
2023-04-15T11:39:44.007Z,22.04
2023-04-15T11:42:36.249Z,25.16
2023-04-15T11:45:26.399Z,24.21
2023-04-15T11:48:11.769Z,23.02
2023-04-15T11:50:58.858Z,24.11
2023-04-15T11:53:47.976Z,24.86
2023-04-15T11:56:32.706Z,23.56
2023-04-15T11:59:15.884Z,22.71
2023-04-15T12:01:59.805Z,24.70
2023-04-15T12:04:45.716Z,24.06
2023-04-15T12:07:30.608Z,22.30
2023-04-15T12:10:20.446Z,23.74
2023-04-15T12:13:09.222Z,23.01
2023-04-15T12:15:53.333Z,24.80
2023-04-15T12:18:39.656Z,25.73
2023-04-15T12:21:24.224Z,23.39
2023-04-15T12:24:09.833Z,22.29
2023-04-15T12:26:57.410Z,23.17
2023-04-15T12:29:45.607Z,23.36
2023-04-15T12:32:29.299Z,22.79
2023-04-15T12:35:13.272Z,24.03
2023-04-15T12:37:57.658Z,25.94
2023-04-15T12:40:42.077Z,21.56
2023-04-15T12:43:27.839Z,22.30
2023-04-15T12:46:11.092Z,22.52
2023-04-15T12:48:54.986Z,21.48
2023-04-15T12:51:40.452Z,20.99
2023-04-15T12:54:23.768Z,20.85
2023-04-15T12:57:07.891Z,22.25
2023-04-15T12:59:54.181Z,21.32
2023-04-15T13:02:38.849Z,23.31
2023-04-15T13:05:22.568Z,21.51
2023-04-15T13:08:06.257Z,22.08
2023-04-15T13:10:49.367Z,21.58
2023-04-15T13:13:33.740Z,21.81
2023-04-15T13:16:24.301Z,21.80
2023-04-15T13:19:10.226Z,21.10
2023-04-15T13:21:53.325Z,21.82
2023-04-15T13:24:36.399Z,22.00
2023-04-15T13:27:19.517Z,21.79
2023-04-15T13:30:03.418Z,22.03
2023-04-15T13:32:50.401Z,22.00
2023-04-15T13:35:34.282Z,21.99
2023-04-15T13:38:17.359Z,21.72
2023-04-15T13:41:00.481Z,21.67
2023-04-15T13:43:43.559Z,21.85
2023-04-15T13:46:27.137Z,22.81
2023-04-15T13:49:11.679Z,23.00
2023-04-15T13:51:54.891Z,22.30
2023-04-15T13:54:38.426Z,22.54
2023-04-15T13:57:21.610Z,22.89
2023-04-15T14:00:06.199Z,23.17
2023-04-15T14:02:49.816Z,21.89
2023-04-15T14:05:35.702Z,22.04
2023-04-15T14:08:19.198Z,22.31
2023-04-15T14:11:05.918Z,23.32
2023-04-15T14:13:48.959Z,22.93
2023-04-15T14:16:33.894Z,23.01
2023-04-15T14:19:20.923Z,23.47
2023-04-15T14:22:05.774Z,23.64
2023-04-15T14:24:52.196Z,23.98
2023-04-15T14:27:36.131Z,23.77
2023-04-15T14:30:20.250Z,23.73
2023-04-15T14:33:03.852Z,23.87
2023-04-15T14:35:49.668Z,24.47
2023-04-15T14:38:39.074Z,24.29
2023-04-15T14:41:23.454Z,25.08
2023-04-15T14:44:09.696Z,25.02
2023-04-15T14:46:53.580Z,25.39
2023-04-15T14:49:36.991Z,25.19
2023-04-15T14:52:20.476Z,25.24
2023-04-15T14:55:05.336Z,25.20
2023-04-15T14:57:51.524Z,25.52
2023-04-15T15:00:39.893Z,25.64
2023-04-15T15:03:25.970Z,27.18
2023-04-15T15:06:10.659Z,28.48
2023-04-15T15:08:55.742Z,28.78
2023-04-15T15:11:40.573Z,26.17
2023-04-15T15:14:24.184Z,26.75
2023-04-15T15:17:07.463Z,26.93
2023-04-15T15:19:52.914Z,28.33
2023-04-15T15:22:36.073Z,28.88
2023-04-15T15:25:19.232Z,29.51
2023-04-15T15:28:04.066Z,29.54
2023-04-15T15:30:48.192Z,29.45
2023-04-15T15:33:32.461Z,29.41
2023-04-15T15:36:15.751Z,29.49
2023-04-15T15:39:00.290Z,30.24
2023-04-15T15:41:44.421Z,30.66
2023-04-15T15:44:29.400Z,30.91
2023-04-15T15:47:12.916Z,30.06
2023-04-15T15:49:56.493Z,30.43
2023-04-15T15:52:40.005Z,30.66
2023-04-15T15:55:26.044Z,29.82
2023-04-15T15:58:09.119Z,29.79
2023-04-15T16:00:54.237Z,30.24
2023-04-15T16:03:37.799Z,30.14
2023-04-15T16:06:21.190Z,30.37
2023-04-15T16:09:04.734Z,30.62
2023-04-15T16:11:48.486Z,30.51
2023-04-15T16:14:31.743Z,30.57
2023-04-15T16:17:16.521Z,30.29
2023-04-15T16:20:01.381Z,30.67
2023-04-15T16:22:44.861Z,30.43
2023-04-15T16:25:28.234Z,31.07
2023-04-15T16:28:25.204Z,30.28
2023-04-15T16:31:09.579Z,30.99
2023-04-15T16:33:56.004Z,31.32
2023-04-15T16:36:41.080Z,31.67
2023-04-15T16:39:24.821Z,31.97
2023-04-15T16:42:08.707Z,32.30
2023-04-15T16:44:52.630Z,32.37
2023-04-15T16:47:35.886Z,32.64
2023-04-15T16:50:23.073Z,33.37
2023-04-15T16:53:06.824Z,33.45
2023-04-15T16:55:50.388Z,32.81
2023-04-15T16:58:33.523Z,33.25
2023-04-15T17:01:17.315Z,33.25
2023-04-15T17:04:00.646Z,34.75
2023-04-15T17:06:46.458Z,36.06
2023-04-15T17:09:31.241Z,36.21
2023-04-15T17:12:15.482Z,35.61
2023-04-15T17:14:58.675Z,35.26
2023-04-15T17:17:41.879Z,37.86
2023-04-15T17:20:25.007Z,36.20
2023-04-15T17:23:10.522Z,37.51
2023-04-15T17:25:54.125Z,37.22
2023-04-15T17:28:37.438Z,38.88
2023-04-15T17:31:20.870Z,36.94
2023-04-15T17:34:09.291Z,38.39
2023-04-15T17:36:55.407Z,37.98
2023-04-15T17:39:40.199Z,38.29
2023-04-15T17:42:24.661Z,38.74
2023-04-15T17:45:09.052Z,39.12
2023-04-15T17:47:52.813Z,38.61
2023-04-15T17:50:36.359Z,38.16
2023-04-15T17:53:20.049Z,38.79
2023-04-15T17:56:04.805Z,38.43
2023-04-15T17:58:48.222Z,38.80
2023-04-15T18:01:32.879Z,38.32
2023-04-15T18:04:16.386Z,39.32
2023-04-15T18:06:59.593Z,39.51
2023-04-15T18:09:44.434Z,39.39
2023-04-15T18:12:28.920Z,39.82
2023-04-15T18:15:14.723Z,39.79
2023-04-15T18:17:58.166Z,40.19
2023-04-15T18:20:41.431Z,39.92
2023-04-15T18:23:24.787Z,40.03
2023-04-15T18:26:08.410Z,39.95
2023-04-15T18:28:56.100Z,39.51
2023-04-15T18:31:39.333Z,39.80
2023-04-15T18:34:22.689Z,40.48
2023-04-15T18:37:07.104Z,40.40
2023-04-15T18:39:50.396Z,40.72
2023-04-15T18:42:33.580Z,40.51
2023-04-15T18:45:22.686Z,41.51
2023-04-15T18:48:06.825Z,41.34
2023-04-15T18:50:54.002Z,41.41
2023-04-15T18:53:37.166Z,40.63
2023-04-15T18:56:20.441Z,41.26
2023-04-15T18:59:08.320Z,41.35
2023-04-15T19:02:09.163Z,41.46
2023-04-15T19:04:52.662Z,41.97
2023-04-15T19:07:36.619Z,42.32
2023-04-15T19:10:20.022Z,42.25
2023-04-15T19:13:05.162Z,42.56
2023-04-15T19:15:48.655Z,42.71
2023-04-15T19:18:33.253Z,42.49
2023-04-15T19:21:16.702Z,43.54
2023-04-15T19:24:01.570Z,42.93
2023-04-15T19:26:46.337Z,44.35
2023-04-15T19:29:29.649Z,45.83
2023-04-15T19:32:14.220Z,46.38
2023-04-15T19:34:58.821Z,45.70
2023-04-15T19:37:42.376Z,45.43
2023-04-15T19:40:25.767Z,45.24
2023-04-15T19:43:09.106Z,46.44
2023-04-15T19:45:54.793Z,46.05
2023-04-15T19:48:39.276Z,45.91
2023-04-15T19:51:23.978Z,46.20
2023-04-15T19:54:07.488Z,46.47
2023-04-15T19:56:50.791Z,45.73
2023-04-15T19:59:34.014Z,46.96
2023-04-15T20:02:17.672Z,47.86
2023-04-15T20:05:01.508Z,45.75
2023-04-15T20:07:48.584Z,45.89
2023-04-15T20:10:32.756Z,45.78
2023-04-15T20:13:16.311Z,44.57
2023-04-15T20:16:00.016Z,45.06
2023-04-15T20:18:43.162Z,45.60
2023-04-15T20:21:26.368Z,46.88
2023-04-15T20:24:11.122Z,46.62
2023-04-15T20:26:54.365Z,46.09
2023-04-15T20:29:37.906Z,47.29
2023-04-15T20:32:21.248Z,47.38
2023-04-15T20:35:05.741Z,46.79
2023-04-15T20:37:50.302Z,46.24
2023-04-15T20:40:35.063Z,45.19
2023-04-15T20:43:20.642Z,44.82
2023-04-15T20:46:13.830Z,45.14
2023-04-15T20:49:04.388Z,45.35
2023-04-15T20:51:47.732Z,46.07
2023-04-15T20:54:30.937Z,46.35
2023-04-15T20:57:15.694Z,46.94
2023-04-15T20:59:58.805Z,46.79
2023-04-15T21:02:45.695Z,47.01
2023-04-15T21:05:29.076Z,45.28
2023-04-15T21:08:12.977Z,45.93
2023-04-15T21:10:56.642Z,47.57
2023-04-15T21:13:41.918Z,47.08
2023-04-15T21:16:25.377Z,46.60
2023-04-15T21:19:09.140Z,47.51
2023-04-15T21:21:54.955Z,47.17
2023-04-15T21:24:38.336Z,46.58
2023-04-15T21:27:22.870Z,45.46
2023-04-15T21:30:09.259Z,46.43
2023-04-15T21:32:52.711Z,45.40
2023-04-15T21:35:36.351Z,45.55
2023-04-15T21:38:21.333Z,47.37
2023-04-15T21:41:09.756Z,45.97
2023-04-15T21:43:53.187Z,46.77
2023-04-15T21:46:37.915Z,47.12
2023-04-15T21:49:24.933Z,47.97
2023-04-15T21:52:10.128Z,50.09
2023-04-15T21:54:53.455Z,51.38
2023-04-15T21:57:36.960Z,52.57
2023-04-15T22:00:21.559Z,55.17
2023-04-15T22:03:06.623Z,57.00
2023-04-15T22:05:49.968Z,59.10
2023-04-15T22:08:44.559Z,59.00
2023-04-15T22:11:36.128Z,60.44
2023-04-15T22:14:19.424Z,60.65
2023-04-15T22:17:03.933Z,61.21
2023-04-15T22:19:48.933Z,61.32
2023-04-15T22:22:44.248Z,61.28
2023-04-15T22:25:28.695Z,61.96
2023-04-15T22:28:11.817Z,61.82
2023-04-15T22:30:56.005Z,61.15
2023-04-15T22:33:39.781Z,61.88
2023-04-15T22:36:25.446Z,58.86
2023-04-15T22:39:09.177Z,57.62
2023-04-15T22:41:52.496Z,56.58
2023-04-15T22:44:35.777Z,56.59
2023-04-15T22:47:19.739Z,55.71
2023-04-15T22:50:03.400Z,55.13
2023-04-15T22:52:48.404Z,54.15
2023-04-15T22:55:34.157Z,53.26
2023-04-15T22:58:18.682Z,54.55
2023-04-15T23:01:02.199Z,52.96
2023-04-15T23:03:57.123Z,53.54
2023-04-15T23:06:49.172Z,51.87
2023-04-15T23:09:34.144Z,51.82
2023-04-15T23:12:17.588Z,50.69
2023-04-15T23:15:01.097Z,50.40
2023-04-15T23:17:45.615Z,50.62
2023-04-15T23:20:29.098Z,50.80
2023-04-15T23:23:12.426Z,51.07
2023-04-15T23:25:56.992Z,51.00
2023-04-15T23:28:40.200Z,51.26
2023-04-15T23:31:23.788Z,51.14
2023-04-15T23:34:08.326Z,51.48
2023-04-15T23:36:51.797Z,52.59
2023-04-15T23:39:35.353Z,51.72
2023-04-15T23:42:20.395Z,51.40
2023-04-15T23:45:03.979Z,50.85
2023-04-15T23:47:47.273Z,50.87
2023-04-15T23:50:30.813Z,50.77
2023-04-15T23:53:13.965Z,50.63
2023-04-15T23:55:57.582Z,50.71
2023-04-15T23:58:42.142Z,50.65
